createdAt,value
2023-04-20T00:00:53.186Z,100418.88
2023-04-20T00:03:57.190Z,100428.97
2023-04-20T00:07:00.568Z,100427.03
2023-04-20T00:10:04.649Z,100433.00
2023-04-20T00:13:08.114Z,100410.66
2023-04-20T00:16:11.532Z,100427.81
2023-04-20T00:19:15.231Z,100414.91
2023-04-20T00:22:18.803Z,100426.41
2023-04-20T00:25:22.178Z,100423.63
2023-04-20T00:28:26.028Z,100424.38
2023-04-20T00:31:29.239Z,100412.69
2023-04-20T00:34:32.581Z,100409.84
2023-04-20T00:37:36.905Z,100406.28
2023-04-20T00:40:42.902Z,100406.44
2023-04-20T00:43:51.175Z,100405.56
2023-04-20T00:46:56.561Z,100407.81
2023-04-20T00:49:59.901Z,100415.28
2023-04-20T00:53:03.432Z,100409.59
2023-04-20T00:56:07.525Z,100410.44
2023-04-20T00:59:11.751Z,100409.28
2023-04-20T01:02:14.981Z,100363.53
2023-04-20T01:05:18.730Z,100407.09
2023-04-20T01:08:26.288Z,100409.16
2023-04-20T01:11:31.457Z,100401.78
2023-04-20T01:14:35.471Z,100409.19
2023-04-20T01:17:40.010Z,100402.34
2023-04-20T01:20:45.329Z,100401.94
2023-04-20T01:23:49.070Z,100407.75
2023-04-20T01:26:52.319Z,100412.47
2023-04-20T01:29:55.771Z,100409.13
2023-04-20T01:32:59.196Z,100411.25
2023-04-20T01:36:03.589Z,100402.25
2023-04-20T01:39:07.022Z,100413.97
2023-04-20T01:42:11.050Z,100413.09
2023-04-20T01:45:14.414Z,100410.78
2023-04-20T01:48:18.405Z,100411.72
2023-04-20T01:51:21.788Z,100411.59
2023-04-20T01:54:25.672Z,100402.38
2023-04-20T01:57:29.023Z,100411.38
2023-04-20T02:00:33.750Z,100411.38
2023-04-20T02:03:37.513Z,100407.75
2023-04-20T02:06:41.237Z,100336.78
2023-04-20T02:09:45.773Z,100408.72
2023-04-20T02:12:50.976Z,100402.72
2023-04-20T02:15:54.688Z,100399.13
2023-04-20T02:18:58.417Z,100404.97
2023-04-20T02:22:02.972Z,100390.25
2023-04-20T02:25:09.992Z,100412.59
2023-04-20T02:28:13.884Z,100406.56
2023-04-20T02:31:17.410Z,100406.56
2023-04-20T02:34:21.658Z,100403.25
2023-04-20T02:37:27.436Z,100407.00
2023-04-20T02:40:31.802Z,100406.34
2023-04-20T02:43:36.369Z,100397.66
2023-04-20T02:46:39.871Z,100404.53
2023-04-20T02:49:44.424Z,100416.19
2023-04-20T02:52:49.083Z,100404.91
2023-04-20T02:55:52.917Z,100419.44
2023-04-20T02:58:57.437Z,100416.28
2023-04-20T03:02:01.339Z,100423.59
2023-04-20T03:05:05.285Z,100413.84
2023-04-20T03:08:10.002Z,100418.22
2023-04-20T03:11:13.124Z,100417.25
2023-04-20T03:14:17.740Z,100420.84
2023-04-20T03:17:21.247Z,100408.22
2023-04-20T03:20:25.533Z,100416.28
2023-04-20T03:23:29.080Z,100431.56
2023-04-20T03:26:32.989Z,100429.16
2023-04-20T03:29:37.975Z,100424.94
2023-04-20T03:32:42.469Z,100426.56
2023-04-20T03:35:46.892Z,100424.94
2023-04-20T03:38:50.394Z,100423.37
2023-04-20T03:41:53.856Z,100426.19
2023-04-20T03:44:59.226Z,100429.69
2023-04-20T03:48:02.953Z,100433.22
2023-04-20T03:51:06.519Z,100430.66
2023-04-20T03:54:09.255Z,100444.19
2023-04-20T03:57:13.469Z,100448.72
2023-04-20T04:00:16.973Z,100438.31
2023-04-20T04:03:20.982Z,100456.94
2023-04-20T04:06:24.907Z,100444.53
2023-04-20T04:09:27.784Z,100460.13
2023-04-20T04:12:31.234Z,100455.38
2023-04-20T04:15:34.674Z,100447.37
2023-04-20T04:18:38.546Z,100446.13
2023-04-20T04:21:42.055Z,100447.66
2023-04-20T04:24:45.810Z,100443.97
2023-04-20T04:27:51.656Z,100439.91
2023-04-20T04:30:56.744Z,100443.06
2023-04-20T04:34:00.737Z,100448.66
2023-04-20T04:37:04.886Z,100451.75
2023-04-20T04:40:09.944Z,100444.25
2023-04-20T04:43:14.954Z,100457.78
2023-04-20T04:46:21.721Z,100456.47
2023-04-20T04:49:26.839Z,100457.75
2023-04-20T04:52:30.180Z,100447.47
2023-04-20T04:55:34.811Z,100460.41
2023-04-20T04:58:37.816Z,100459.91
2023-04-20T05:01:41.268Z,100464.78
2023-04-20T05:04:44.583Z,100465.81
2023-04-20T05:07:48.090Z,100464.06
2023-04-20T05:10:51.432Z,100464.31
2023-04-20T05:13:54.969Z,100467.06
2023-04-20T05:17:01.285Z,100462.69
2023-04-20T05:20:06.874Z,100477.72
2023-04-20T05:23:10.827Z,100481.06
2023-04-20T05:26:19.791Z,100470.19
2023-04-20T05:29:23.002Z,100473.47
2023-04-20T05:32:26.442Z,100461.63
2023-04-20T05:35:30.859Z,100475.06
2023-04-20T05:38:34.260Z,100468.34
2023-04-20T05:41:37.255Z,100462.47
2023-04-20T05:44:41.520Z,100472.09
2023-04-20T05:47:56.722Z,100470.00
2023-04-20T05:51:00.149Z,100471.72
2023-04-20T05:54:04.218Z,100476.44
2023-04-20T05:57:07.662Z,100470.06
2023-04-20T06:00:12.934Z,100464.09
2023-04-20T06:03:16.969Z,100468.38
2023-04-20T06:06:22.463Z,100474.81
2023-04-20T06:09:26.705Z,100473.78
2023-04-20T06:12:31.369Z,100464.00
2023-04-20T06:15:35.025Z,100479.53
2023-04-20T06:18:39.764Z,100483.44
2023-04-20T06:21:43.072Z,100471.91
2023-04-20T06:24:46.814Z,100473.69
2023-04-20T06:27:52.016Z,100483.22
2023-04-20T06:30:56.099Z,100470.41
2023-04-20T06:33:59.481Z,100470.06
2023-04-20T06:37:02.941Z,100469.38
2023-04-20T06:40:10.817Z,100466.84
2023-04-20T06:43:14.485Z,100467.78
2023-04-20T06:46:17.870Z,100461.59
2023-04-20T06:49:21.775Z,100455.00
2023-04-20T06:52:25.142Z,100466.31
2023-04-20T06:55:28.548Z,100467.16
2023-04-20T06:58:31.768Z,100446.16
2023-04-20T07:01:35.545Z,100465.97
2023-04-20T07:04:39.044Z,100461.78
2023-04-20T07:07:43.258Z,100451.56
2023-04-20T07:10:47.659Z,100461.63
2023-04-20T07:13:51.235Z,100453.53
2023-04-20T07:16:55.490Z,100455.72
2023-04-20T07:20:07.811Z,100461.81
2023-04-20T07:23:11.212Z,100467.25
2023-04-20T07:26:16.082Z,100465.94
2023-04-20T07:29:19.478Z,100475.06
2023-04-20T07:32:23.750Z,100472.09
2023-04-20T07:35:27.113Z,100476.63
2023-04-20T07:38:30.690Z,100467.66
2023-04-20T07:41:33.830Z,100460.34
2023-04-20T07:44:37.673Z,100477.22
2023-04-20T07:47:41.272Z,100473.91
2023-04-20T07:50:44.813Z,100463.75
2023-04-20T07:53:48.043Z,100474.56
2023-04-20T07:56:51.655Z,100455.44
2023-04-20T07:59:55.226Z,100460.84
2023-04-20T08:02:58.885Z,100462.53
2023-04-20T08:06:02.532Z,100464.41
2023-04-20T08:09:06.162Z,100463.16
2023-04-20T08:12:09.817Z,100469.50
2023-04-20T08:15:13.020Z,100465.94
2023-04-20T08:18:16.842Z,100462.94
2023-04-20T08:21:25.378Z,100471.16
2023-04-20T08:24:32.289Z,100473.47
2023-04-20T08:27:35.623Z,100445.78
2023-04-20T08:30:41.250Z,100471.09
2023-04-20T08:33:44.891Z,100455.47
2023-04-20T08:36:48.364Z,100456.47
2023-04-20T08:39:51.520Z,100461.78
2023-04-20T08:42:54.951Z,100459.06
2023-04-20T08:46:00.127Z,100455.75
2023-04-20T08:49:04.438Z,100451.84
2023-04-20T08:52:10.993Z,100456.81
2023-04-20T08:55:18.801Z,100447.25
2023-04-20T08:58:22.097Z,100447.94
2023-04-20T09:01:34.847Z,100445.38
2023-04-20T09:04:40.118Z,100451.66
2023-04-20T09:07:53.461Z,100457.03
2023-04-20T09:10:56.535Z,100446.16
2023-04-20T09:14:02.475Z,100453.47
2023-04-20T09:17:05.840Z,100437.59
2023-04-20T09:20:11.419Z,100446.78
2023-04-20T09:23:21.581Z,100444.81
2023-04-20T09:26:25.491Z,100441.19
2023-04-20T09:29:30.452Z,100439.03
2023-04-20T09:32:35.760Z,100433.47
2023-04-20T09:35:41.007Z,100437.72
2023-04-20T09:38:44.478Z,100437.16
2023-04-20T09:41:49.949Z,100435.00
2023-04-20T09:44:54.742Z,100429.19
2023-04-20T09:47:58.824Z,100421.91
2023-04-20T09:51:03.646Z,100422.63
2023-04-20T09:54:08.683Z,100432.34
2023-04-20T09:57:13.913Z,100425.00
2023-04-20T10:00:18.130Z,100429.87
2023-04-20T10:03:22.184Z,100425.94
2023-04-20T10:06:31.268Z,100411.22
2023-04-20T10:09:34.881Z,100423.31
2023-04-20T10:12:58.613Z,100414.94
2023-04-20T10:16:02.031Z,100409.63
2023-04-20T10:19:07.702Z,100408.34
2023-04-20T10:22:25.428Z,100394.78
2023-04-20T10:25:31.825Z,100387.69
2023-04-20T10:28:40.418Z,100398.62
2023-04-20T10:31:43.609Z,100389.03
2023-04-20T10:34:47.234Z,100398.62
2023-04-20T10:37:51.847Z,100404.72
2023-04-20T10:40:55.601Z,100398.62
2023-04-20T10:44:09.324Z,100388.12
2023-04-20T10:47:14.464Z,100388.34
2023-04-20T10:50:19.130Z,100385.78
2023-04-20T10:53:23.848Z,100390.31
2023-04-20T10:56:27.542Z,100388.91
2023-04-20T10:59:31.066Z,100383.19
2023-04-20T11:02:35.362Z,100384.75
2023-04-20T11:05:38.805Z,100384.06
2023-04-20T11:08:43.467Z,100370.44
2023-04-20T11:11:47.185Z,100370.72
2023-04-20T11:15:03.197Z,100373.09
2023-04-20T11:18:12.010Z,100368.84
2023-04-20T11:21:15.439Z,100371.03
2023-04-20T11:24:22.331Z,100362.59
2023-04-20T11:27:25.843Z,100363.34
2023-04-20T11:30:38.679Z,100361.34
2023-04-20T11:33:42.166Z,100352.56
2023-04-20T11:36:51.511Z,100338.06
2023-04-20T11:40:09.105Z,100331.81
2023-04-20T11:43:12.686Z,100359.72
2023-04-20T11:46:20.514Z,100348.03
2023-04-20T11:49:25.420Z,100340.00
2023-04-20T11:52:28.693Z,100339.47
2023-04-20T11:55:32.030Z,100347.75
2023-04-20T11:58:35.689Z,100338.78
2023-04-20T12:01:39.731Z,100352.06
2023-04-20T12:04:44.110Z,100344.47
2023-04-20T12:07:48.423Z,100350.59
2023-04-20T12:10:51.804Z,100354.16
2023-04-20T12:13:55.133Z,100353.84
2023-04-20T12:16:58.805Z,100356.22
2023-04-20T12:20:02.882Z,100339.75
2023-04-20T12:23:06.290Z,100337.06
2023-04-20T12:26:09.637Z,100333.06
2023-04-20T12:29:13.480Z,100339.03
2023-04-20T12:32:16.595Z,100332.50
2023-04-20T12:35:20.927Z,100324.38
2023-04-20T12:38:23.967Z,100323.22
2023-04-20T12:41:27.896Z,100326.66
2023-04-20T12:44:31.058Z,100316.34
2023-04-20T12:47:34.600Z,100315.22
2023-04-20T12:50:38.144Z,100314.63
2023-04-20T12:53:42.137Z,100321.53
2023-04-20T12:56:45.299Z,100319.78
2023-04-20T12:59:49.454Z,100325.44
2023-04-20T13:02:52.945Z,100316.31
2023-04-20T13:05:56.487Z,100314.78
2023-04-20T13:09:01.392Z,100298.59
2023-04-20T13:12:05.394Z,100309.66
2023-04-20T13:15:09.515Z,100284.72
2023-04-20T13:18:15.364Z,100284.13
2023-04-20T13:21:18.509Z,100281.22
2023-04-20T13:24:22.079Z,100286.75
2023-04-20T13:27:25.108Z,100285.56
2023-04-20T13:30:28.862Z,100282.81
2023-04-20T13:33:33.429Z,100280.63
2023-04-20T13:36:36.898Z,100286.62
2023-04-20T13:39:40.209Z,100281.59
2023-04-20T13:42:43.563Z,100283.75
2023-04-20T13:45:46.997Z,100277.63
2023-04-20T13:48:51.652Z,100282.28
2023-04-20T13:51:55.554Z,100280.16
2023-04-20T13:54:59.665Z,100271.47
2023-04-20T13:58:02.693Z,100272.03
2023-04-20T14:01:11.369Z,100267.50
2023-04-20T14:04:17.054Z,100262.69
2023-04-20T14:07:21.538Z,100265.31
2023-04-20T14:10:24.830Z,100264.63
2023-04-20T14:13:28.016Z,100253.81
2023-04-20T14:16:31.781Z,100264.88
2023-04-20T14:19:35.072Z,100261.63
2023-04-20T14:22:38.573Z,100254.03
2023-04-20T14:25:41.734Z,100250.75
2023-04-20T14:28:46.051Z,100250.19
2023-04-20T14:31:49.319Z,100257.66
2023-04-20T14:34:52.705Z,100257.66
2023-04-20T14:37:56.006Z,100248.13
2023-04-20T14:40:59.370Z,100244.66
2023-04-20T14:44:02.993Z,100239.53
2023-04-20T14:47:07.681Z,100250.53
2023-04-20T14:50:11.549Z,100232.88
2023-04-20T14:53:15.457Z,100244.66
2023-04-20T14:56:18.743Z,100238.34
2023-04-20T14:59:24.653Z,100240.44
2023-04-20T15:02:28.080Z,100238.91
2023-04-20T15:05:31.797Z,100236.84
2023-04-20T15:08:35.661Z,100237.37
2023-04-20T15:11:39.030Z,100229.28
2023-04-20T15:14:42.343Z,100229.91
2023-04-20T15:17:49.648Z,100231.34
2023-04-20T15:20:52.828Z,100230.13
2023-04-20T15:23:56.085Z,100233.19
2023-04-20T15:26:59.104Z,100240.91
2023-04-20T15:30:03.262Z,100258.72
2023-04-20T15:33:06.954Z,100247.72
2023-04-20T15:36:10.813Z,100236.03
2023-04-20T15:39:14.009Z,100270.09
2023-04-20T15:42:19.213Z,100267.72
2023-04-20T15:45:23.695Z,100259.09
2023-04-20T15:48:27.958Z,100260.16
2023-04-20T15:51:31.817Z,100262.78
2023-04-20T15:54:37.729Z,100263.66
2023-04-20T15:57:43.245Z,100263.09
2023-04-20T16:00:48.339Z,100262.91
2023-04-20T16:03:52.047Z,100264.78
2023-04-20T16:06:55.424Z,100279.38
2023-04-20T16:09:58.896Z,100290.12
2023-04-20T16:13:03.645Z,100303.12
2023-04-20T16:16:07.422Z,100304.94
2023-04-20T16:19:11.518Z,100308.56
2023-04-20T16:22:14.990Z,100308.59
2023-04-20T16:25:23.219Z,100306.03
2023-04-20T16:28:26.729Z,100317.22
2023-04-20T16:31:29.958Z,100321.22
2023-04-20T16:34:33.454Z,100321.75
2023-04-20T16:37:36.725Z,100334.22
2023-04-20T16:40:42.767Z,100331.13
2023-04-20T16:43:46.644Z,100324.78
2023-04-20T16:46:53.133Z,100329.41
2023-04-20T16:49:56.251Z,100326.78
2023-04-20T16:53:00.046Z,100328.28
2023-04-20T16:56:03.137Z,100311.94
2023-04-20T16:59:07.828Z,100305.94
2023-04-20T17:02:10.759Z,100312.81
2023-04-20T17:05:15.740Z,100314.97
2023-04-20T17:08:19.111Z,100315.16
2023-04-20T17:11:23.260Z,100320.03
2023-04-20T17:14:26.323Z,100328.87
2023-04-20T17:17:30.169Z,100326.62
2023-04-20T17:20:33.418Z,100325.97
2023-04-20T17:23:37.401Z,100325.97
2023-04-20T17:26:40.703Z,100337.38
2023-04-20T17:29:45.201Z,100339.13
2023-04-20T17:32:48.804Z,100338.69
2023-04-20T17:35:52.652Z,100327.53
2023-04-20T17:38:56.095Z,100345.28
2023-04-20T17:42:00.005Z,100345.72
2023-04-20T17:45:04.018Z,100348.69
2023-04-20T17:48:09.051Z,100350.44
2023-04-20T17:51:14.753Z,100328.31
2023-04-20T17:54:19.659Z,100355.75
2023-04-20T17:57:24.155Z,100368.12
2023-04-20T18:00:28.180Z,100364.62
2023-04-20T18:03:32.365Z,100368.47
2023-04-20T18:06:37.164Z,100365.34
2023-04-20T18:09:43.573Z,100375.53
2023-04-20T18:12:49.413Z,100386.16
2023-04-20T18:15:54.361Z,100393.75
2023-04-20T18:18:58.169Z,100400.56
2023-04-20T18:22:02.898Z,100397.72
2023-04-20T18:25:07.679Z,100401.50
2023-04-20T18:28:11.947Z,100423.84
2023-04-20T18:31:16.810Z,100420.56
2023-04-20T18:34:21.706Z,100431.84
2023-04-20T18:37:25.385Z,100430.81
2023-04-20T18:40:32.440Z,100445.59
2023-04-20T18:43:36.684Z,100442.19
2023-04-20T18:46:42.731Z,100447.63
2023-04-20T18:49:47.441Z,100445.50
2023-04-20T18:52:53.810Z,100452.16
2023-04-20T18:56:02.753Z,100454.59
2023-04-20T18:59:09.319Z,100445.12
2023-04-20T19:02:14.178Z,100455.38
2023-04-20T19:05:18.543Z,100453.06
2023-04-20T19:08:25.764Z,100454.59
2023-04-20T19:11:33.388Z,100458.25
2023-04-20T19:14:37.361Z,100457.41
2023-04-20T19:17:42.970Z,100453.78
2023-04-20T19:20:47.735Z,100454.91
2023-04-20T19:23:51.997Z,100457.22
2023-04-20T19:26:56.588Z,100456.91
2023-04-20T19:30:05.005Z,100457.44
2023-04-20T19:33:09.058Z,100461.66
2023-04-20T19:36:14.258Z,100464.13
2023-04-20T19:39:18.584Z,100461.50
2023-04-20T19:42:26.091Z,100475.13
2023-04-20T19:45:29.270Z,100467.97
2023-04-20T19:48:34.317Z,100476.25
2023-04-20T19:51:39.772Z,100471.03
2023-04-20T19:54:45.853Z,100480.38
2023-04-20T19:57:50.027Z,100479.31
2023-04-20T20:00:55.173Z,100479.69
2023-04-20T20:03:58.935Z,100482.13
2023-04-20T20:07:03.028Z,100478.13
2023-04-20T20:10:07.486Z,100487.19
2023-04-20T20:13:10.751Z,100484.37
2023-04-20T20:16:14.311Z,100486.91
2023-04-20T20:19:18.535Z,100450.44
2023-04-20T20:22:22.332Z,100474.66
2023-04-20T20:25:25.991Z,100482.41
2023-04-20T20:28:29.673Z,100489.62
2023-04-20T20:31:34.572Z,100482.41
2023-04-20T20:34:37.929Z,100480.75
2023-04-20T20:37:42.561Z,100491.88
2023-04-20T20:40:51.263Z,100501.00
2023-04-20T20:43:55.505Z,100483.59
2023-04-20T20:47:02.723Z,100487.25
2023-04-20T20:50:06.669Z,100498.41
2023-04-20T20:53:10.612Z,100500.41
2023-04-20T20:56:13.758Z,100494.31
2023-04-20T20:59:17.842Z,100474.63
2023-04-20T21:02:21.893Z,100504.78
2023-04-20T21:05:25.470Z,100501.84
2023-04-20T21:08:28.779Z,100500.88
2023-04-20T21:11:32.138Z,100496.94
2023-04-20T21:14:37.312Z,100497.47
2023-04-20T21:17:40.696Z,100499.44
2023-04-20T21:20:43.696Z,100503.53
2023-04-20T21:23:47.016Z,100508.00
2023-04-20T21:26:50.063Z,100512.81
2023-04-20T21:29:53.314Z,100508.59
2023-04-20T21:32:56.537Z,100506.69
2023-04-20T21:35:59.699Z,100509.56
2023-04-20T21:39:03.874Z,100511.59
2023-04-20T21:42:07.224Z,100521.41
2023-04-20T21:45:10.722Z,100516.47
2023-04-20T21:48:14.164Z,100514.19
2023-04-20T21:51:20.396Z,100521.31
2023-04-20T21:54:24.208Z,100516.88
2023-04-20T21:57:27.215Z,100503.91
2023-04-20T22:00:30.914Z,100485.44
2023-04-20T22:03:36.645Z,100519.31
2023-04-20T22:06:40.764Z,100515.22
2023-04-20T22:09:44.295Z,100516.16
2023-04-20T22:12:47.735Z,100518.34
2023-04-20T22:15:52.858Z,100515.19
2023-04-20T22:18:56.463Z,100520.94
2023-04-20T22:21:59.746Z,100515.16
2023-04-20T22:25:04.644Z,100509.81
2023-04-20T22:28:08.018Z,100516.22
2023-04-20T22:31:12.413Z,100520.28
2023-04-20T22:34:16.098Z,100495.31
2023-04-20T22:37:19.471Z,100512.38
2023-04-20T22:40:24.128Z,100511.81
2023-04-20T22:43:27.701Z,100511.16
2023-04-20T22:46:31.258Z,100515.69
2023-04-20T22:49:35.138Z,100513.06
2023-04-20T22:52:38.969Z,100508.22
2023-04-20T22:55:42.068Z,100506.53
2023-04-20T22:58:45.737Z,100470.50
2023-04-20T23:01:48.895Z,100496.19
2023-04-20T23:04:52.733Z,100501.72
2023-04-20T23:07:56.579Z,100466.53
2023-04-20T23:11:00.323Z,100498.72
2023-04-20T23:14:03.493Z,100495.22
2023-04-20T23:17:07.321Z,100491.84
2023-04-20T23:20:14.020Z,100494.81
2023-04-20T23:23:17.868Z,100496.97
2023-04-20T23:26:21.090Z,100492.78
2023-04-20T23:29:24.764Z,100502.94
2023-04-20T23:32:28.085Z,100491.09
2023-04-20T23:35:32.161Z,100492.50
2023-04-20T23:38:35.537Z,100495.06
2023-04-20T23:41:39.127Z,100496.78
2023-04-20T23:44:42.157Z,100505.22
2023-04-20T23:47:45.697Z,100500.56
2023-04-20T23:50:50.007Z,100500.12
2023-04-20T23:53:53.408Z,100499.53
2023-04-20T23:56:57.091Z,100501.56
